Time;durP1;ratioP1;P1;durP2;ratioP2;P2;SDS_P1;SDS_P2;PMS_P1;PMS_P2;Temp;Humidity;BMP_temperature;BMP_pressure;BME280_temperature;BME280_humidity;BME280_pressure;Samples;Min_cycle;Max_cycle;Signal;HPM_P1;HPM_P2
2023/12/06 00:01:33;;;;;;;58.60;40.60;;;;;;;;;;5096753;28;20067;-79
2023/12/06 00:03:59;;;;;;;67.28;42.33;;;;;;;;;;5063312;28;20051;-79
2023/12/06 00:06:26;;;;;;;62.08;40.97;;;;;;;;;;5079962;28;20050;-79
2023/12/06 00:08:52;;;;;;;61.78;41.40;;;;;;;;;;5097008;28;20484;-78
2023/12/06 00:11:19;;;;;;;62.67;41.08;;;;;;;;;;5114625;28;20464;-79
2023/12/06 00:13:45;;;;;;;62.25;41.42;;;;;;;;;;5096707;28;20085;-79
2023/12/06 00:16:11;;;;;;;57.50;39.53;;;;;;;;;;5096528;28;20123;-79
2023/12/06 00:18:41;;;;;;;60.15;40.40;;;;;;;;;;5079455;28;20103;-79
2023/12/06 00:21:07;;;;;;;58.28;39.30;;;;;;;;;;5096700;28;20157;-79
2023/12/06 00:23:33;;;;;;;60.00;41.25;;;;;;;;;;5095725;28;20047;-79
2023/12/06 00:25:59;;;;;;;58.60;40.30;;;;;;;;;;5096480;28;20036;-79
2023/12/06 00:28:26;;;;;;;57.65;39.35;;;;;;;;;;5095978;28;20043;-79
2023/12/06 00:30:52;;;;;;;61.42;40.70;;;;;;;;;;5096344;28;20361;-79
2023/12/06 00:33:18;;;;;;;55.67;37.83;;;;;;;;;;5079442;28;20050;-79
2023/12/06 00:35:44;;;;;;;55.55;38.95;;;;;;;;;;5079509;28;20135;-79
2023/12/06 00:38:10;;;;;;;57.15;40.45;;;;;;;;;;5096118;28;20387;-79
2023/12/06 00:40:36;;;;;;;54.80;38.03;;;;;;;;;;5095966;28;20040;-79
2023/12/06 00:43:05;;;;;;;51.72;37.90;;;;;;;;;;5095670;28;20388;-79
2023/12/06 00:45:31;;;;;;;52.42;37.58;;;;;;;;;;5096185;28;20055;-79
2023/12/06 00:47:57;;;;;;;55.83;39.22;;;;;;;;;;5096172;28;20376;-79
2023/12/06 00:50:23;;;;;;;57.45;38.50;;;;;;;;;;5096129;28;20044;-79
2023/12/06 00:52:49;;;;;;;54.97;39.35;;;;;;;;;;5096165;28;20047;-79
2023/12/06 00:55:15;;;;;;;50.90;38.28;;;;;;;;;;5078756;28;20074;-79
2023/12/06 00:57:42;;;;;;;51.75;37.08;;;;;;;;;;5096064;28;20043;-79
2023/12/06 01:00:08;;;;;;;52.45;36.63;;;;;;;;;;5113966;28;20093;-79
2023/12/06 01:02:34;;;;;;;52.53;36.53;;;;;;;;;;5078983;28;20040;-79
2023/12/06 01:05:00;;;;;;;53.38;36.53;;;;;;;;;;5095531;28;20558;-80
2023/12/06 01:07:27;;;;;;;51.20;36.70;;;;;;;;;;5095474;28;20483;-79
2023/12/06 01:09:53;;;;;;;53.17;37.75;;;;;;;;;;5079213;28;20047;-79
2023/12/06 01:12:20;;;;;;;53.60;36.55;;;;;;;;;;5095781;28;20051;-79
2023/12/06 01:14:46;;;;;;;53.33;37.10;;;;;;;;;;5095906;28;20396;-79
2023/12/06 01:17:12;;;;;;;49.42;35.45;;;;;;;;;;5095903;28;20051;-79
2023/12/06 01:19:38;;;;;;;51.85;37.00;;;;;;;;;;5095817;28;20036;-79
2023/12/06 01:22:04;;;;;;;53.63;37.33;;;;;;;;;;5095779;28;20071;-79
2023/12/06 01:24:30;;;;;;;54.13;39.40;;;;;;;;;;5113414;28;20044;-79
2023/12/06 01:26:56;;;;;;;54.67;37.85;;;;;;;;;;5095782;28;20044;-79
2023/12/06 01:29:23;;;;;;;55.10;38.90;;;;;;;;;;5095718;28;20069;-79
2023/12/06 01:31:49;;;;;;;52.10;37.78;;;;;;;;;;5078977;28;20044;-79
2023/12/06 01:34:15;;;;;;;52.47;38.58;;;;;;;;;;5095753;28;20082;-79
2023/12/06 01:36:41;;;;;;;52.33;37.00;;;;;;;;;;5095724;28;20040;-79
2023/12/06 01:39:08;;;;;;;54.40;39.53;;;;;;;;;;5095687;28;20048;-79
2023/12/06 01:41:34;;;;;;;56.58;40.15;;;;;;;;;;5081082;28;20498;-79
2023/12/06 01:44:00;;;;;;;55.53;39.97;;;;;;;;;;5099535;28;20039;-79
2023/12/06 01:46:26;;;;;;;55.55;39.70;;;;;;;;;;5099738;28;20426;-79
2023/12/06 01:48:53;;;;;;;54.90;39.35;;;;;;;;;;5098999;28;20060;-79
2023/12/06 01:51:20;;;;;;;53.80;38.80;;;;;;;;;;5117328;28;20455;-79
2023/12/06 01:53:46;;;;;;;59.08;40.72;;;;;;;;;;5098647;28;20479;-79
2023/12/06 01:56:13;;;;;;;55.10;39.80;;;;;;;;;;5099282;28;20043;-79
2023/12/06 01:58:39;;;;;;;56.90;40.03;;;;;;;;;;5082232;28;20055;-79
2023/12/06 02:01:06;;;;;;;56.45;39.63;;;;;;;;;;5082299;28;20134;-79
2023/12/06 02:03:32;;;;;;;55.40;39.40;;;;;;;;;;5098809;28;20044;-79
2023/12/06 02:06:00;;;;;;;64.45;42.60;;;;;;;;;;5082318;28;20126;-79
2023/12/06 02:08:26;;;;;;;53.72;39.55;;;;;;;;;;5098761;28;20495;-79
2023/12/06 02:10:52;;;;;;;60.53;40.55;;;;;;;;;;5098533;28;20043;-79
2023/12/06 02:13:18;;;;;;;57.58;40.90;;;;;;;;;;5082377;28;20399;-79
2023/12/06 02:15:45;;;;;;;55.40;40.17;;;;;;;;;;5116716;28;20047;-79
2023/12/06 02:18:11;;;;;;;56.15;39.60;;;;;;;;;;5098776;28;20052;-79
2023/12/06 02:20:37;;;;;;;58.95;41.47;;;;;;;;;;5098768;28;20051;-79
2023/12/06 02:23:04;;;;;;;65.50;43.85;;;;;;;;;;5098491;28;20090;-79
2023/12/06 02:25:30;;;;;;;68.15;41.63;;;;;;;;;;5097979;28;20479;-79
2023/12/06 02:27:57;;;;;;;56.08;40.10;;;;;;;;;;5081934;28;20490;-79
2023/12/06 02:30:24;;;;;;;57.20;40.75;;;;;;;;;;5098802;28;20188;-79
2023/12/06 02:32:50;;;;;;;57.17;39.42;;;;;;;;;;5098613;28;20048;-78
2023/12/06 02:35:21;;;;;;;57.78;39.88;;;;;;;;;;5098130;28;20159;-79
2023/12/06 02:37:49;;;;;;;54.90;40.78;;;;;;;;;;5081544;28;20089;-79
2023/12/06 02:40:15;;;;;;;58.80;40.92;;;;;;;;;;5098422;28;20391;-79
2023/12/06 02:42:41;;;;;;;57.40;40.22;;;;;;;;;;5097947;28;20146;-78
2023/12/06 02:45:08;;;;;;;59.30;41.58;;;;;;;;;;5097920;28;20047;-79
2023/12/06 02:47:34;;;;;;;62.80;40.53;;;;;;;;;;5098300;28;20051;-79
2023/12/06 02:50:00;;;;;;;55.85;39.70;;;;;;;;;;5098289;28;20075;-78
2023/12/06 02:52:26;;;;;;;63.10;41.45;;;;;;;;;;5081007;28;20542;-78
2023/12/06 02:54:52;;;;;;;58.75;42.05;;;;;;;;;;5097708;28;20475;-79
2023/12/06 02:57:18;;;;;;;61.20;40.17;;;;;;;;;;5097557;28;20498;-79
2023/12/06 02:59:44;;;;;;;66.13;41.05;;;;;;;;;;5098039;28;20068;-79
2023/12/06 03:02:10;;;;;;;69.28;41.80;;;;;;;;;;5098137;28;20054;-79
2023/12/06 03:04:36;;;;;;;58.47;39.38;;;;;;;;;;5097847;28;20051;-79
2023/12/06 03:07:02;;;;;;;58.08;39.92;;;;;;;;;;5080745;28;20104;-79
2023/12/06 03:09:28;;;;;;;57.60;39.05;;;;;;;;;;5097899;28;20051;-78
2023/12/06 03:11:54;;;;;;;60.22;40.20;;;;;;;;;;5098548;28;20062;-79
2023/12/06 03:14:20;;;;;;;57.05;38.38;;;;;;;;;;5081273;28;20043;-79
2023/12/06 03:16:46;;;;;;;54.33;38.55;;;;;;;;;;5080811;28;20052;-79
2023/12/06 03:19:12;;;;;;;54.95;37.70;;;;;;;;;;5097448;28;20067;-79
2023/12/06 03:21:38;;;;;;;55.83;38.63;;;;;;;;;;5097381;28;20046;-79
2023/12/06 03:24:04;;;;;;;58.95;39.70;;;;;;;;;;5080267;28;20046;-79
2023/12/06 03:26:31;;;;;;;53.72;37.45;;;;;;;;;;5115463;28;20502;-79
2023/12/06 03:28:57;;;;;;;56.90;37.80;;;;;;;;;;5080747;28;20466;-79
2023/12/06 03:31:23;;;;;;;53.30;37.22;;;;;;;;;;5080660;28;20039;-79
2023/12/06 03:33:49;;;;;;;53.30;37.47;;;;;;;;;;5097349;28;20054;-79
2023/12/06 03:36:15;;;;;;;51.78;36.00;;;;;;;;;;5098055;28;20048;-79
2023/12/06 03:38:41;;;;;;;51.13;36.05;;;;;;;;;;5097567;28;20043;-79
2023/12/06 03:41:07;;;;;;;51.70;35.15;;;;;;;;;;5080294;28;20135;-79
2023/12/06 03:43:34;;;;;;;51.83;36.78;;;;;;;;;;5097043;28;20475;-79
2023/12/06 03:46:00;;;;;;;48.95;36.10;;;;;;;;;;5080226;28;20040;-78
2023/12/06 03:48:26;;;;;;;49.70;35.58;;;;;;;;;;5097145;28;20047;-79
2023/12/06 03:50:52;;;;;;;51.20;35.72;;;;;;;;;;5097467;28;20047;-79
2023/12/06 03:53:18;;;;;;;65.30;39.17;;;;;;;;;;5079892;28;20411;-79
2023/12/06 03:55:44;;;;;;;53.38;35.83;;;;;;;;;;5080227;28;20051;-78
2023/12/06 03:58:10;;;;;;;54.15;37.08;;;;;;;;;;5078347;28;20117;-79
2023/12/06 04:00:36;;;;;;;50.45;34.95;;;;;;;;;;5096058;28;20040;-79
2023/12/06 04:03:03;;;;;;;49.35;35.05;;;;;;;;;;5113798;28;20047;-79
2023/12/06 04:05:29;;;;;;;50.53;35.97;;;;;;;;;;5080097;28;20047;-78
2023/12/06 04:07:55;;;;;;;48.75;35.33;;;;;;;;;;5096803;28;20134;-78
2023/12/06 04:10:21;;;;;;;51.33;35.95;;;;;;;;;;5096359;28;20055;-78
2023/12/06 04:12:47;;;;;;;47.33;33.65;;;;;;;;;;5063203;28;20547;-79
2023/12/06 04:15:14;;;;;;;50.42;33.70;;;;;;;;;;5079589;28;20477;-78
2023/12/06 04:17:40;;;;;;;49.47;34.33;;;;;;;;;;5079862;28;20051;-79
2023/12/06 04:20:08;;;;;;;47.88;34.58;;;;;;;;;;5096531;28;20039;-79
2023/12/06 04:22:34;;;;;;;48.10;33.72;;;;;;;;;;5114447;28;20047;-79
2023/12/06 04:25:00;;;;;;;45.33;33.88;;;;;;;;;;5114389;28;20399;-79
2023/12/06 04:27:26;;;;;;;44.88;31.60;;;;;;;;;;5079562;28;20058;-79
2023/12/06 04:29:52;;;;;;;43.28;31.83;;;;;;;;;;5114455;28;20044;-79
2023/12/06 04:32:18;;;;;;;46.85;33.92;;;;;;;;;;5079631;28;20039;-79
2023/12/06 04:34:54;;;;;;;43.22;31.75;;;;;;;;;;5096478;28;20051;-79
2023/12/06 04:37:21;;;;;;;45.72;31.88;;;;;;;;;;5096378;28;20547;-79
2023/12/06 04:39:47;;;;;;;41.97;31.25;;;;;;;;;;5079599;28;20040;-79
2023/12/06 04:42:14;;;;;;;41.67;31.23;;;;;;;;;;5114312;28;20055;-80
2023/12/06 04:44:40;;;;;;;45.83;31.88;;;;;;;;;;5079403;28;20172;-79
2023/12/06 04:47:06;;;;;;;46.17;31.50;;;;;;;;;;5095959;28;20518;-79
2023/12/06 04:49:32;;;;;;;41.05;30.25;;;;;;;;;;5096187;28;20047;-79
2023/12/06 04:52:00;;;;;;;41.38;30.77;;;;;;;;;;5096361;28;20054;-80
2023/12/06 04:54:26;;;;;;;41.42;31.77;;;;;;;;;;5095499;28;20054;-80
2023/12/06 04:56:53;;;;;;;41.22;30.98;;;;;;;;;;5096153;28;20090;-80
2023/12/06 04:59:19;;;;;;;44.17;32.50;;;;;;;;;;5096087;28;20483;-79
2023/12/06 05:01:45;;;;;;;45.35;32.13;;;;;;;;;;5096374;28;20097;-79
2023/12/06 05:04:11;;;;;;;39.83;30.17;;;;;;;;;;5079825;28;20048;-79
2023/12/06 05:06:37;;;;;;;42.40;30.80;;;;;;;;;;5095941;28;20080;-79
2023/12/06 05:09:07;;;;;;;41.00;30.75;;;;;;;;;;5095385;28;20043;-79
2023/12/06 05:11:33;;;;;;;37.28;29.20;;;;;;;;;;5095546;28;20129;-79
2023/12/06 05:14:00;;;;;;;38.83;29.85;;;;;;;;;;5078773;28;20121;-79
2023/12/06 05:16:26;;;;;;;42.92;30.55;;;;;;;;;;5099871;28;20500;-79
2023/12/06 05:18:52;;;;;;;42.95;30.65;;;;;;;;;;5082082;28;20043;-79
2023/12/06 05:21:18;;;;;;;42.63;30.65;;;;;;;;;;5098961;28;20051;-79
2023/12/06 05:23:44;;;;;;;42.13;30.67;;;;;;;;;;5065739;28;20535;-79
2023/12/06 05:26:10;;;;;;;40.70;30.17;;;;;;;;;;5099677;28;20479;-79
2023/12/06 05:28:36;;;;;;;44.80;31.65;;;;;;;;;;5117844;28;20079;-79
2023/12/06 05:31:02;;;;;;;40.80;30.25;;;;;;;;;;5099765;28;20058;-79
2023/12/06 05:33:28;;;;;;;43.17;29.63;;;;;;;;;;5116801;28;20376;-79
2023/12/06 05:35:57;;;;;;;37.90;28.80;;;;;;;;;;5083446;28;20462;-79
2023/12/06 05:38:23;;;;;;;40.92;30.05;;;;;;;;;;5079360;28;20135;-79
2023/12/06 05:40:50;;;;;;;39.80;29.63;;;;;;;;;;5062187;28;20052;-79
2023/12/06 05:43:16;;;;;;;41.22;29.35;;;;;;;;;;5062343;28;20468;-80
2023/12/06 05:45:43;;;;;;;40.85;28.55;;;;;;;;;;5097120;28;20098;-80
2023/12/06 05:48:09;;;;;;;48.55;31.17;;;;;;;;;;5096100;28;20087;-79
2023/12/06 05:50:35;;;;;;;39.25;29.50;;;;;;;;;;5079198;28;20117;-79
2023/12/06 05:53:02;;;;;;;37.15;27.80;;;;;;;;;;5091727;28;20044;-80
2023/12/06 05:55:28;;;;;;;38.67;27.92;;;;;;;;;;5099021;28;20059;-79
2023/12/06 05:57:54;;;;;;;37.88;28.42;;;;;;;;;;5099339;28;20082;-79
2023/12/06 06:00:20;;;;;;;39.75;28.50;;;;;;;;;;5099260;28;20111;-80
2023/12/06 06:02:46;;;;;;;37.20;28.02;;;;;;;;;;5116534;28;20484;-80
2023/12/06 06:05:13;;;;;;;34.13;26.83;;;;;;;;;;5099641;28;20052;-80
2023/12/06 06:07:39;;;;;;;49.33;29.88;;;;;;;;;;5099091;28;20474;-80
2023/12/06 06:10:07;;;;;;;37.67;30.10;;;;;;;;;;5117130;28;20395;-80
2023/12/06 06:12:34;;;;;;;34.97;26.98;;;;;;;;;;5099497;28;20060;-79
2023/12/06 06:15:00;;;;;;;38.85;27.67;;;;;;;;;;5098776;28;20135;-80
2023/12/06 06:17:27;;;;;;;33.85;26.05;;;;;;;;;;5099233;28;20051;-80
2023/12/06 06:19:53;;;;;;;33.35;25.10;;;;;;;;;;5098959;28;20078;-80
2023/12/06 06:22:19;;;;;;;33.65;25.45;;;;;;;;;;5098696;28;20070;-80
2023/12/06 06:24:45;;;;;;;32.47;24.38;;;;;;;;;;5098455;28;20548;-80
2023/12/06 06:27:11;;;;;;;35.03;24.67;;;;;;;;;;5098622;28;20066;-80
2023/12/06 06:29:37;;;;;;;33.35;24.25;;;;;;;;;;5098470;28;20052;-80
2023/12/06 06:32:03;;;;;;;33.47;24.13;;;;;;;;;;5081896;28;20440;-79
2023/12/06 06:34:29;;;;;;;30.90;23.02;;;;;;;;;;5098374;28;20078;-80
2023/12/06 06:36:56;;;;;;;30.75;24.17;;;;;;;;;;5099068;28;20039;-80
2023/12/06 06:39:22;;;;;;;28.77;23.30;;;;;;;;;;5098550;28;20046;-80
2023/12/06 06:41:48;;;;;;;28.63;23.27;;;;;;;;;;5098000;28;20518;-80
2023/12/06 06:44:14;;;;;;;28.88;23.10;;;;;;;;;;5065086;28;20432;-80
2023/12/06 06:46:40;;;;;;;30.48;23.95;;;;;;;;;;5098359;28;20051;-80
2023/12/06 06:49:06;;;;;;;27.02;22.60;;;;;;;;;;5081527;28;20083;-80
2023/12/06 06:51:36;;;;;;;26.63;22.63;;;;;;;;;;5098118;28;20059;-80
2023/12/06 06:54:02;;;;;;;34.42;24.77;;;;;;;;;;5097576;28;20109;-80
2023/12/06 06:56:28;;;;;;;40.83;29.40;;;;;;;;;;5080981;28;20059;-80
2023/12/06 06:58:54;;;;;;;40.50;28.60;;;;;;;;;;5098140;28;20134;-80
2023/12/06 07:01:21;;;;;;;39.67;27.25;;;;;;;;;;5116013;28;20047;-80
2023/12/06 07:03:47;;;;;;;39.85;29.30;;;;;;;;;;5116005;28;20188;-80
2023/12/06 07:06:13;;;;;;;35.88;27.88;;;;;;;;;;5097737;28;20044;-80
2023/12/06 07:08:40;;;;;;;34.10;27.38;;;;;;;;;;5116298;28;20391;-80
2023/12/06 07:11:06;;;;;;;35.72;26.38;;;;;;;;;;5081086;28;20053;-80
2023/12/06 07:13:32;;;;;;;31.60;25.75;;;;;;;;;;5081034;28;20040;-79
2023/12/06 07:15:58;;;;;;;34.67;26.77;;;;;;;;;;5116292;28;20054;-79
2023/12/06 07:18:25;;;;;;;36.90;27.70;;;;;;;;;;5081036;28;20044;-79
2023/12/06 07:20:52;;;;;;;33.63;25.30;;;;;;;;;;5097765;28;20052;-80
2023/12/06 07:23:18;;;;;;;34.42;25.35;;;;;;;;;;5097787;28;20053;-79
2023/12/06 07:25:45;;;;;;;34.00;26.17;;;;;;;;;;5080497;28;20568;-80
2023/12/06 07:28:11;;;;;;;28.98;24.67;;;;;;;;;;5080836;28;20055;-79
2023/12/06 07:30:37;;;;;;;32.67;25.40;;;;;;;;;;5097870;28;20403;-79
2023/12/06 07:33:03;;;;;;;35.28;26.25;;;;;;;;;;5097587;28;20051;-80
2023/12/06 07:35:29;;;;;;;34.53;26.88;;;;;;;;;;5080651;28;20081;-79
2023/12/06 07:37:55;;;;;;;37.63;28.13;;;;;;;;;;5097705;28;20084;-79
2023/12/06 07:40:22;;;;;;;35.40;27.13;;;;;;;;;;5080647;28;20139;-79
2023/12/06 07:42:51;;;;;;;35.90;26.58;;;;;;;;;;5115529;28;20051;-79
2023/12/06 07:45:17;;;;;;;39.28;28.38;;;;;;;;;;5097564;28;20403;-79
2023/12/06 07:47:43;;;;;;;32.95;25.98;;;;;;;;;;5097289;28;20083;-79
2023/12/06 07:50:10;;;;;;;33.67;26.75;;;;;;;;;;5096986;28;20043;-79
2023/12/06 07:52:37;;;;;;;34.38;26.77;;;;;;;;;;5115112;28;20049;-79
2023/12/06 07:55:06;;;;;;;35.30;27.83;;;;;;;;;;5079768;28;20061;-79
2023/12/06 07:57:36;;;;;;;32.00;25.98;;;;;;;;;;5080231;28;20043;-79
2023/12/06 08:00:07;;;;;;;31.75;26.88;;;;;;;;;;5097344;28;20430;-79
2023/12/06 08:02:34;;;;;;;34.60;26.30;;;;;;;;;;5114865;28;20480;-79
2023/12/06 08:05:02;;;;;;;35.25;26.95;;;;;;;;;;5080014;28;20072;-79
2023/12/06 08:07:29;;;;;;;31.92;26.55;;;;;;;;;;5096408;28;20554;-79
2023/12/06 08:09:55;;;;;;;32.38;26.00;;;;;;;;;;5079840;28;20118;-79
2023/12/06 08:12:21;;;;;;;34.33;26.63;;;;;;;;;;5096702;28;20437;-79
2023/12/06 08:14:47;;;;;;;37.40;29.10;;;;;;;;;;5114644;28;20122;-79
2023/12/06 08:17:14;;;;;;;31.48;24.98;;;;;;;;;;5095728;28;20043;-78
2023/12/06 08:19:40;;;;;;;35.25;26.80;;;;;;;;;;5079258;28;20044;-79
2023/12/06 08:22:06;;;;;;;34.33;26.10;;;;;;;;;;5079445;28;20043;-79
2023/12/06 08:24:33;;;;;;;31.67;25.50;;;;;;;;;;5114055;28;20048;-79
2023/12/06 08:26:59;;;;;;;30.75;24.77;;;;;;;;;;5096785;28;20043;-79
2023/12/06 08:29:25;;;;;;;28.60;23.88;;;;;;;;;;5096536;28;20047;-77
2023/12/06 08:31:51;;;;;;;30.90;25.23;;;;;;;;;;5096568;28;20126;-78
2023/12/06 08:34:18;;;;;;;31.77;24.58;;;;;;;;;;5079328;28;20059;-79
2023/12/06 08:36:44;;;;;;;36.45;26.15;;;;;;;;;;5096088;28;20132;-79
2023/12/06 08:39:11;;;;;;;30.13;23.80;;;;;;;;;;5114310;28;20047;-79
2023/12/06 08:41:37;;;;;;;29.38;24.33;;;;;;;;;;5062462;28;20146;-79
2023/12/06 08:44:04;;;;;;;29.73;23.40;;;;;;;;;;5079527;28;20052;-80
2023/12/06 08:46:31;;;;;;;27.40;23.20;;;;;;;;;;5096427;28;20047;-80
2023/12/06 08:48:57;;;;;;;28.13;22.92;;;;;;;;;;5095914;28;20086;-79
2023/12/06 08:51:23;;;;;;;29.52;23.42;;;;;;;;;;5079483;28;20039;-80
2023/12/06 08:53:49;;;;;;;28.92;23.63;;;;;;;;;;5096219;28;20395;-81
2023/12/06 08:56:15;;;;;;;27.58;22.58;;;;;;;;;;5096389;28;20100;-80
2023/12/06 08:58:42;;;;;;;26.45;22.65;;;;;;;;;;5096211;28;20092;-80
2023/12/06 09:01:08;;;;;;;28.90;22.50;;;;;;;;;;5096202;28;20083;-79
2023/12/06 09:03:34;;;;;;;25.50;22.30;;;;;;;;;;5079129;28;20441;-80
2023/12/06 09:06:00;;;;;;;29.98;23.05;;;;;;;;;;5096283;28;20495;-79
2023/12/06 09:08:26;;;;;;;26.58;20.77;;;;;;;;;;5096225;28;20368;-80
2023/12/06 09:10:52;;;;;;;29.67;21.77;;;;;;;;;;5096179;28;20040;-80
2023/12/06 09:13:19;;;;;;;25.73;22.33;;;;;;;;;;5096043;28;20039;-80
2023/12/06 09:15:45;;;;;;;26.63;22.02;;;;;;;;;;5095737;28;20047;-80
2023/12/06 09:18:11;;;;;;;26.58;22.45;;;;;;;;;;5096061;28;20059;-80
2023/12/06 09:20:37;;;;;;;33.95;24.63;;;;;;;;;;5113972;28;20043;-80
2023/12/06 09:23:03;;;;;;;25.83;21.75;;;;;;;;;;5079071;28;20048;-80
2023/12/06 09:25:29;;;;;;;29.90;23.27;;;;;;;;;;5095593;28;20094;-80
2023/12/06 09:27:55;;;;;;;26.17;21.75;;;;;;;;;;5096002;28;20043;-80
2023/12/06 09:30:21;;;;;;;26.17;22.10;;;;;;;;;;5096389;28;20429;-79
2023/12/06 09:32:47;;;;;;;29.40;22.85;;;;;;;;;;5095952;28;20138;-79
2023/12/06 09:35:13;;;;;;;27.35;23.00;;;;;;;;;;5095936;28;20471;-80
2023/12/06 09:37:40;;;;;;;27.52;21.80;;;;;;;;;;5079515;28;20379;-80
2023/12/06 09:40:06;;;;;;;26.85;22.38;;;;;;;;;;5113761;28;20043;-79
2023/12/06 09:42:34;;;;;;;30.08;23.08;;;;;;;;;;5095244;28;20048;-80
2023/12/06 09:45:01;;;;;;;28.73;23.27;;;;;;;;;;5095763;28;20069;-79
2023/12/06 09:47:28;;;;;;;25.40;21.40;;;;;;;;;;5095833;28;20572;-79
2023/12/06 09:49:54;;;;;;;26.30;22.08;;;;;;;;;;5095691;28;20040;-79
2023/12/06 09:52:21;;;;;;;26.15;21.30;;;;;;;;;;5096007;28;20405;-79
2023/12/06 09:54:49;;;;;;;27.52;22.42;;;;;;;;;;5095308;28;20044;-79
2023/12/06 09:57:15;;;;;;;23.08;20.60;;;;;;;;;;5095431;28;20538;-78
2023/12/06 09:59:41;;;;;;;26.80;21.67;;;;;;;;;;5095596;28;20475;-79
2023/12/06 10:02:08;;;;;;;24.90;20.42;;;;;;;;;;5064257;28;20070;-79
2023/12/06 10:04:37;;;;;;;29.88;22.85;;;;;;;;;;5099437;28;20040;-79
2023/12/06 10:07:03;;;;;;;23.92;21.25;;;;;;;;;;5082403;28;20043;-79
2023/12/06 10:09:30;;;;;;;25.10;22.17;;;;;;;;;;5099248;28;20500;-79
2023/12/06 10:12:09;;;;;;;22.48;20.08;;;;;;;;;;5082421;28;20048;-79
2023/12/06 10:14:35;;;;;;;24.02;21.27;;;;;;;;;;5098194;28;20391;-79
2023/12/06 10:17:02;;;;;;;25.75;20.73;;;;;;;;;;5102986;28;20044;-79
2023/12/06 10:19:31;;;;;;;23.65;20.23;;;;;;;;;;5107370;28;20044;-79
2023/12/06 10:21:58;;;;;;;22.65;20.13;;;;;;;;;;5098525;28;20106;-78
2023/12/06 10:24:24;;;;;;;22.00;19.55;;;;;;;;;;5081607;28;20044;-79
2023/12/06 10:27:00;;;;;;;26.20;20.20;;;;;;;;;;5082038;28;20057;-78
2023/12/06 10:29:27;;;;;;;22.00;19.60;;;;;;;;;;5098947;28;20458;-78
2023/12/06 10:31:53;;;;;;;22.23;18.95;;;;;;;;;;5082109;28;20047;-79
2023/12/06 10:34:19;;;;;;;25.27;20.30;;;;;;;;;;5081883;28;20087;-79
2023/12/06 10:36:46;;;;;;;24.42;20.50;;;;;;;;;;5116713;28;20458;-79
2023/12/06 10:39:14;;;;;;;22.13;18.40;;;;;;;;;;5116745;28;20065;-79
2023/12/06 10:41:42;;;;;;;25.20;19.88;;;;;;;;;;5098043;28;20048;-78
2023/12/06 10:44:10;;;;;;;20.38;18.10;;;;;;;;;;5097990;28;20468;-79
2023/12/06 10:46:39;;;;;;;20.83;18.27;;;;;;;;;;5098355;28;20047;-79
2023/12/06 10:49:06;;;;;;;21.80;18.25;;;;;;;;;;5116079;28;20086;-79
2023/12/06 10:51:33;;;;;;;22.98;18.65;;;;;;;;;;5116146;28;20043;-79
2023/12/06 10:54:00;;;;;;;22.55;17.30;;;;;;;;;;5097549;28;20284;-79
2023/12/06 10:56:27;;;;;;;25.00;18.33;;;;;;;;;;5098005;28;20056;-78
2023/12/06 10:58:55;;;;;;;28.05;20.58;;;;;;;;;;5080635;28;20386;-78
2023/12/06 11:01:22;;;;;;;21.05;18.35;;;;;;;;;;5080958;28;20082;-78
2023/12/06 11:03:48;;;;;;;27.60;19.98;;;;;;;;;;5097866;28;20048;-78
2023/12/06 11:06:31;;;;;;;25.52;19.88;;;;;;;;;;5098144;28;20055;-78
2023/12/06 11:09:00;;;;;;;22.20;19.95;;;;;;;;;;5098173;28;20191;-78
2023/12/06 11:11:35;;;;;;;24.20;21.33;;;;;;;;;;5080687;28;20043;-78
2023/12/06 11:14:20;;;;;;;25.15;20.50;;;;;;;;;;5097296;28;20051;-78
2023/12/06 11:16:53;;;;;;;24.30;20.48;;;;;;;;;;5080541;28;20509;-78
2023/12/06 11:19:20;;;;;;;21.80;19.55;;;;;;;;;;5097720;28;20078;-78
2023/12/06 11:21:46;;;;;;;26.02;20.52;;;;;;;;;;5080950;28;20150;-78
2023/12/06 11:24:12;;;;;;;26.83;19.15;;;;;;;;;;5075502;28;20047;-78
2023/12/06 11:26:38;;;;;;;24.30;19.60;;;;;;;;;;5095118;28;20051;-78
2023/12/06 11:29:04;;;;;;;23.02;19.60;;;;;;;;;;5096512;28;20044;-78
2023/12/06 11:31:37;;;;;;;23.25;19.65;;;;;;;;;;5097649;28;20047;-78
2023/12/06 11:34:09;;;;;;;24.33;19.83;;;;;;;;;;5080582;28;20058;-78
2023/12/06 11:36:35;;;;;;;21.65;18.75;;;;;;;;;;5080600;28;20044;-78
2023/12/06 11:39:21;;;;;;;20.77;18.63;;;;;;;;;;5097416;28;20050;-78
2023/12/06 11:41:54;;;;;;;25.48;20.10;;;;;;;;;;5096239;28;20114;-79
2023/12/06 11:44:21;;;;;;;21.63;18.75;;;;;;;;;;5094916;28;20395;-78
2023/12/06 11:46:51;;;;;;;20.60;18.38;;;;;;;;;;5112681;28;20289;-78
2023/12/06 11:49:17;;;;;;;21.27;19.08;;;;;;;;;;5079535;28;20046;-78
2023/12/06 11:51:43;;;;;;;21.75;19.08;;;;;;;;;;5079269;28;20043;-78
2023/12/06 11:54:10;;;;;;;19.92;17.88;;;;;;;;;;5079119;28;20047;-78
2023/12/06 11:56:36;;;;;;;24.35;18.77;;;;;;;;;;5095924;28;20032;-78
2023/12/06 11:59:05;;;;;;;19.85;17.85;;;;;;;;;;5094302;28;20040;-78
2023/12/06 12:01:31;;;;;;;22.50;17.95;;;;;;;;;;5094515;28;20119;-78
2023/12/06 12:03:57;;;;;;;20.70;17.02;;;;;;;;;;5113710;28;20055;-78
2023/12/06 12:06:27;;;;;;;19.35;17.00;;;;;;;;;;5095751;28;20050;-78
2023/12/06 12:08:53;;;;;;;18.02;16.10;;;;;;;;;;5095531;28;20048;-78
2023/12/06 12:11:19;;;;;;;18.27;16.50;;;;;;;;;;5095477;28;20089;-78
2023/12/06 12:13:45;;;;;;;17.70;15.88;;;;;;;;;;5078398;28;20048;-78
2023/12/06 12:16:16;;;;;;;20.45;16.25;;;;;;;;;;5095630;28;20082;-78
2023/12/06 12:18:42;;;;;;;21.35;17.13;;;;;;;;;;5092930;28;20048;-78
2023/12/06 12:21:19;;;;;;;20.70;16.00;;;;;;;;;;5095538;28;20062;-78
2023/12/06 12:23:48;;;;;;;24.40;16.67;;;;;;;;;;5110837;28;20042;-80
2023/12/06 12:26:15;;;;;;;19.02;17.13;;;;;;;;;;5095214;28;20051;-77
2023/12/06 12:28:42;;;;;;;18.80;16.05;;;;;;;;;;5095571;28;20073;-78
2023/12/06 12:31:11;;;;;;;18.83;16.85;;;;;;;;;;5078180;28;20047;-77
2023/12/06 12:33:37;;;;;;;20.67;17.13;;;;;;;;;;5095442;28;20072;-78
2023/12/06 12:36:04;;;;;;;20.35;17.05;;;;;;;;;;5092365;28;20039;-79
2023/12/06 12:38:30;;;;;;;19.00;17.00;;;;;;;;;;5095365;28;20078;-78
2023/12/06 12:40:56;;;;;;;21.85;17.73;;;;;;;;;;5094848;28;20049;-78
2023/12/06 12:43:23;;;;;;;17.45;15.68;;;;;;;;;;5092379;28;20039;-78
2023/12/06 12:45:50;;;;;;;18.65;16.08;;;;;;;;;;5078207;28;20046;-78
2023/12/06 12:48:16;;;;;;;17.98;16.08;;;;;;;;;;5094929;28;20039;-78
2023/12/06 12:50:42;;;;;;;21.45;16.02;;;;;;;;;;5061195;28;20047;-78
2023/12/06 12:53:08;;;;;;;17.08;15.30;;;;;;;;;;5066184;28;20131;-78
2023/12/06 12:55:35;;;;;;;17.98;14.93;;;;;;;;;;5077682;28;20232;-78
2023/12/06 12:58:02;;;;;;;19.48;16.08;;;;;;;;;;5094774;28;20122;-78
2023/12/06 13:00:32;;;;;;;16.98;15.27;;;;;;;;;;5078247;28;20094;-77
2023/12/06 13:02:58;;;;;;;16.98;15.23;;;;;;;;;;5093404;28;20057;-78
2023/12/06 13:05:28;;;;;;;16.20;14.57;;;;;;;;;;5094633;28;20387;-78
2023/12/06 13:07:58;;;;;;;19.92;15.02;;;;;;;;;;5096605;28;20380;-78
2023/12/06 13:10:28;;;;;;;18.67;14.88;;;;;;;;;;5078762;28;20081;-79
2023/12/06 13:12:55;;;;;;;18.27;14.98;;;;;;;;;;5095684;28;20050;-79
2023/12/06 13:15:21;;;;;;;17.90;14.70;;;;;;;;;;5095958;28;20391;-77
2023/12/06 13:17:48;;;;;;;19.95;15.90;;;;;;;;;;5095859;28;20487;-78
2023/12/06 13:20:14;;;;;;;17.92;15.10;;;;;;;;;;5094837;28;20047;-78
2023/12/06 13:22:40;;;;;;;17.27;15.48;;;;;;;;;;5094246;28;20388;-78
2023/12/06 13:25:10;;;;;;;16.23;14.50;;;;;;;;;;5094696;28;20040;-78
2023/12/06 13:27:36;;;;;;;16.75;14.43;;;;;;;;;;5094870;28;20500;-78
2023/12/06 13:30:03;;;;;;;15.88;14.18;;;;;;;;;;5078125;28;20040;-78
2023/12/06 13:32:29;;;;;;;17.55;14.80;;;;;;;;;;5094250;28;20051;-78
2023/12/06 13:34:55;;;;;;;17.20;15.50;;;;;;;;;;5099348;28;20122;-78
2023/12/06 13:37:21;;;;;;;17.48;14.43;;;;;;;;;;5100178;28;20043;-78
2023/12/06 13:39:47;;;;;;;18.73;15.18;;;;;;;;;;5098427;28;20096;-79
2023/12/06 13:42:14;;;;;;;17.15;13.77;;;;;;;;;;5096538;28;20063;-78
2023/12/06 13:44:41;;;;;;;17.58;14.48;;;;;;;;;;5098777;28;20086;-78
2023/12/06 13:47:08;;;;;;;18.88;16.33;;;;;;;;;;5098685;28;20062;-78
2023/12/06 13:49:34;;;;;;;14.68;13.25;;;;;;;;;;5081707;28;20441;-78
2023/12/06 13:52:00;;;;;;;18.17;13.75;;;;;;;;;;5097024;28;20498;-79
2023/12/06 13:54:26;;;;;;;15.07;13.48;;;;;;;;;;5075095;28;20494;-78
2023/12/06 13:56:52;;;;;;;16.88;13.70;;;;;;;;;;5099123;28;20036;-78
2023/12/06 13:59:18;;;;;;;14.57;12.98;;;;;;;;;;5098554;28;20089;-78
2023/12/06 14:01:45;;;;;;;15.38;13.45;;;;;;;;;;5078420;28;20047;-78
2023/12/06 14:04:11;;;;;;;14.05;10.88;;;;;;;;;;5095484;28;20104;-78
2023/12/06 14:06:38;;;;;;;14.05;12.60;;;;;;;;;;5098300;28;20155;-77
2023/12/06 14:09:05;;;;;;;15.95;12.63;;;;;;;;;;5081315;28;20118;-78
2023/12/06 14:11:31;;;;;;;14.68;13.20;;;;;;;;;;5113742;28;20046;-78
2023/12/06 14:13:57;;;;;;;12.52;11.25;;;;;;;;;;5098115;28;20048;-78